Time;durP1;ratioP1;P1;durP2;ratioP2;P2;SDS_P1;SDS_P2;PMS_P1;PMS_P2;Temp;Humidity;BMP_temperature;BMP_pressure;BME280_temperature;BME280_humidity;BME280_pressure;Samples;Min_cycle;Max_cycle;Signal;HPM_P1;HPM_P2
2023/10/11 00:02:56;;;;;;;8.27;6.22;;;16.90;48.20;;;;;;20573;6873;119106;-74
2023/10/11 00:05:25;;;;;;;8.95;7.00;;;16.80;48.20;;;;;;20341;6873;293648;-74
2023/10/11 00:07:57;;;;;;;9.27;6.47;;;16.80;48.60;;;;;;20618;6873;117687;-74
2023/10/11 00:10:22;;;;;;;10.50;6.37;;;16.70;48.50;;;;;;20610;6873;119354;-74
2023/10/11 00:12:43;;;;;;;11.57;7.30;;;16.50;48.80;;;;;;20391;6873;314079;-74
2023/10/11 00:15:09;;;;;;;9.17;6.23;;;16.60;49.00;;;;;;20611;6873;119290;-74
2023/10/11 00:17:36;;;;;;;6.30;5.63;;;16.50;48.80;;;;;;20626;6871;118097;-73
2023/10/11 00:20:03;;;;;;;8.97;6.57;;;16.30;48.90;;;;;;20636;6872;118939;-73
2023/10/11 00:22:25;;;;;;;6.43;5.47;;;16.10;49.00;;;;;;20591;6884;117894;-75
2023/10/11 00:24:51;;;;;;;8.00;6.13;;;16.00;49.30;;;;;;20632;6872;117741;-73
2023/10/11 00:27:17;;;;;;;9.10;7.22;;;15.80;49.40;;;;;;20397;6873;344189;-73
2023/10/11 00:29:42;;;;;;;8.13;6.30;;;16.00;49.80;;;;;;20617;6873;118577;-73
2023/10/11 00:32:09;;;;;;;13.05;7.60;;;16.10;49.40;;;;;;20409;6873;309231;-73
2023/10/11 00:34:34;;;;;;;7.20;6.33;;;16.30;49.00;;;;;;20623;6873;123862;-73
2023/10/11 00:36:59;;;;;;;10.27;7.33;;;16.30;48.80;;;;;;20419;6873;284683;-73
2023/10/11 00:39:24;;;;;;;10.60;7.07;;;16.40;48.90;;;;;;20395;6873;307323;-73
2023/10/11 00:41:50;;;;;;;9.37;7.47;;;16.70;48.00;;;;;;20419;6873;279700;-73
2023/10/11 00:44:22;;;;;;;9.68;7.57;;;17.00;47.50;;;;;;20410;6873;343461;-73
2023/10/11 00:46:58;;;;;;;8.80;6.57;;;17.10;47.20;;;;;;20638;6873;117856;-73
2023/10/11 00:49:18;;;;;;;8.70;6.10;;;16.50;47.90;;;;;;20581;6873;118576;-73
2023/10/11 00:51:42;;;;;;;8.63;6.40;;;16.50;47.90;;;;;;20619;6873;121525;-73
2023/10/11 00:54:12;;;;;;;7.10;6.03;;;16.00;48.90;;;;;;20618;6873;117954;-73
2023/10/11 00:56:34;;;;;;;7.73;6.33;;;16.00;48.90;;;;;;20610;6873;119386;-73
2023/10/11 00:59:00;;;;;;;6.25;5.65;;;15.80;49.10;;;;;;20628;6873;117362;-73
2023/10/11 01:01:25;;;;;;;8.67;6.70;;;15.70;49.20;;;;;;20603;6873;123685;-73
2023/10/11 01:03:53;;;;;;;10.07;6.70;;;15.50;49.50;;;;;;20624;6873;119670;-73
2023/10/11 01:06:17;;;;;;;11.10;7.50;;;15.50;49.50;;;;;;20418;6873;312693;-73
2023/10/11 01:08:43;;;;;;;10.70;7.68;;;15.80;49.70;;;;;;20413;6873;309617;-73
2023/10/11 01:11:08;;;;;;;6.90;6.20;;;16.10;48.80;;;;;;20613;6873;118800;-73
2023/10/11 01:13:34;;;;;;;9.73;7.60;;;16.10;48.60;;;;;;20390;6873;280353;-73
2023/10/11 01:16:05;;;;;;;7.20;6.60;;;16.20;48.50;;;;;;20625;6873;118729;-73
2023/10/11 01:18:27;;;;;;;8.70;7.80;;;16.10;48.50;;;;;;20404;6873;279126;-73
2023/10/11 01:20:51;;;;;;;7.90;6.60;;;16.20;48.60;;;;;;20618;6873;121909;-73
2023/10/11 01:23:16;;;;;;;10.73;6.97;;;16.10;48.70;;;;;;20602;6873;117653;-73
2023/10/11 01:25:42;;;;;;;10.00;6.53;;;15.90;49.10;;;;;;20622;6873;118846;-74
2023/10/11 01:28:07;;;;;;;10.57;7.73;;;15.70;49.30;;;;;;20411;6871;315360;-73
2023/10/11 01:30:33;;;;;;;8.60;6.30;;;15.90;49.50;;;;;;20621;6872;117688;-74
2023/10/11 01:32:58;;;;;;;6.83;6.20;;;15.90;49.20;;;;;;20622;6872;118356;-73
2023/10/11 01:35:28;;;;;;;10.77;7.07;;;15.80;49.30;;;;;;20390;6872;309699;-73
2023/10/11 01:37:54;;;;;;;10.80;6.40;;;16.00;49.00;;;;;;20611;6873;117546;-73
2023/10/11 01:40:24;;;;;;;8.82;7.35;;;15.90;48.90;;;;;;20392;6873;313623;-73
2023/10/11 01:42:49;;;;;;;8.75;7.70;;;16.00;48.70;;;;;;20344;6884;280246;-73
2023/10/11 01:45:13;;;;;;;8.40;7.35;;;16.50;48.20;;;;;;20341;6880;309222;-74
2023/10/11 01:47:39;;;;;;;9.27;7.15;;;16.50;48.60;;;;;;20421;6871;280497;-73
2023/10/11 01:50:05;;;;;;;9.15;7.65;;;16.70;47.80;;;;;;20424;6871;339054;-74
2023/10/11 01:52:34;;;;;;;9.87;7.20;;;16.80;47.10;;;;;;20590;6882;117465;-73
2023/10/11 01:54:56;;;;;;;7.37;6.67;;;16.60;47.40;;;;;;20625;6872;117774;-75
2023/10/11 01:57:25;;;;;;;11.93;7.62;;;16.20;48.00;;;;;;20377;6872;338952;-73
2023/10/11 01:59:49;;;;;;;9.50;6.53;;;16.20;48.30;;;;;;20591;6882;119568;-73
2023/10/11 02:02:15;;;;;;;12.33;6.43;;;16.10;48.30;;;;;;20598;6882;118523;-73
2023/10/11 02:04:41;;;;;;;9.55;6.00;;;15.90;48.70;;;;;;20595;6882;118956;-73
2023/10/11 02:07:06;;;;;;;8.63;7.73;;;15.60;48.90;;;;;;20363;6882;281517;-73
2023/10/11 02:09:33;;;;;;;7.05;6.32;;;15.80;48.80;;;;;;20600;6882;118232;-73
2023/10/11 02:11:58;;;;;;;8.50;7.00;;;15.80;48.90;;;;;;20553;6898;117688;-73
2023/10/11 02:14:28;;;;;;;8.88;7.30;;;15.50;49.10;;;;;;20352;6897;280120;-73
2023/10/11 02:16:53;;;;;;;9.33;6.90;;;15.70;49.20;;;;;;20602;6879;117474;-73
2023/10/11 02:19:17;;;;;;;9.30;7.25;;;15.70;49.10;;;;;;20377;6879;309881;-73
2023/10/11 02:21:46;;;;;;;8.13;7.40;;;15.80;48.90;;;;;;20391;6879;280044;-73
2023/10/11 02:24:16;;;;;;;9.15;7.68;;;16.00;48.50;;;;;;20382;6879;344366;-73
2023/10/11 02:26:41;;;;;;;7.80;6.47;;;16.30;48.10;;;;;;20605;6879;117355;-73
2023/10/11 02:29:16;;;;;;;10.48;6.90;;;16.10;48.20;;;;;;20571;6879;117862;-78
2023/10/11 02:31:35;;;;;;;9.20;6.20;;;15.80;48.70;;;;;;20581;6879;117642;-72
2023/10/11 02:34:15;;;;;;;9.48;7.50;;;15.50;49.10;;;;;;20396;6879;347448;-74
2023/10/11 02:36:44;;;;;;;11.10;7.33;;;15.90;48.50;;;;;;20403;6879;297647;-77
2023/10/11 02:39:20;;;;;;;9.30;7.23;;;15.90;48.50;;;;;;20379;6878;285281;-76
2023/10/11 02:41:37;;;;;;;9.20;7.07;;;16.20;48.20;;;;;;20524;6879;120859;-76
2023/10/11 02:44:02;;;;;;;9.93;7.65;;;16.00;48.20;;;;;;20398;6879;294191;-76
2023/10/11 02:46:27;;;;;;;9.40;6.30;;;16.00;48.40;;;;;;20606;6879;117319;-73
2023/10/11 02:49:05;;;;;;;9.93;7.50;;;15.80;48.40;;;;;;20412;6879;279997;-73
2023/10/11 02:51:24;;;;;;;10.13;7.53;;;15.80;48.40;;;;;;20334;6879;279611;-73
2023/10/11 02:53:43;;;;;;;11.20;7.70;;;16.00;48.20;;;;;;20385;6879;284648;-73
2023/10/11 02:56:09;;;;;;;9.77;7.73;;;16.20;48.20;;;;;;20410;6879;279603;-73
2023/10/11 02:58:38;;;;;;;11.47;7.60;;;16.30;47.70;;;;;;20321;6894;314710;-73
2023/10/11 03:01:04;;;;;;;7.75;6.53;;;16.40;47.60;;;;;;20549;6891;118440;-73
2023/10/11 03:03:26;;;;;;;10.70;6.40;;;16.10;47.80;;;;;;20555;6883;118179;-73
2023/10/11 03:05:51;;;;;;;10.27;5.97;;;15.70;48.40;;;;;;20604;6875;117511;-73
2023/10/11 03:08:19;;;;;;;13.07;7.47;;;15.40;48.90;;;;;;20404;6875;279526;-73
2023/10/11 03:10:53;;;;;;;8.45;6.30;;;15.50;49.00;;;;;;20613;6875;117457;-73
2023/10/11 03:13:24;;;;;;;8.50;6.30;;;15.40;49.00;;;;;;20577;6872;117375;-77
2023/10/11 03:15:46;;;;;;;11.50;8.45;;;15.30;49.40;;;;;;20410;6870;278972;-70
2023/10/11 03:18:10;;;;;;;10.50;6.30;;;15.50;49.30;;;;;;20633;6870;117559;-70
2023/10/11 03:20:37;;;;;;;12.63;7.63;;;15.50;49.10;;;;;;20418;6870;313606;-72
2023/10/11 03:23:04;;;;;;;7.50;6.80;;;15.50;49.00;;;;;;20610;6870;118289;-71
2023/10/11 03:25:28;;;;;;;8.55;7.45;;;15.50;49.10;;;;;;20419;6870;280256;-70
2023/10/11 03:27:53;;;;;;;7.77;6.50;;;15.60;49.30;;;;;;20629;6870;119621;-70
2023/10/11 03:30:24;;;;;;;7.05;6.30;;;15.50;49.20;;;;;;20625;6870;122521;-70
2023/10/11 03:32:45;;;;;;;8.43;6.13;;;15.30;49.50;;;;;;20570;6884;123630;-70
2023/10/11 03:35:12;;;;;;;10.90;7.77;;;15.00;49.70;;;;;;20414;6867;279064;-70
2023/10/11 03:37:37;;;;;;;9.07;6.90;;;15.20;49.80;;;;;;20626;6867;118941;-70
2023/10/11 03:40:11;;;;;;;8.10;7.30;;;15.20;49.60;;;;;;20423;6867;309466;-70
2023/10/11 03:45:12;;;;;;;9.73;6.60;;;15.60;49.10;;;;;;20621;6867;118068;-70
2023/10/11 03:47:38;;;;;;;11.90;7.97;;;15.40;49.10;;;;;;20429;6867;311826;-70
2023/10/11 03:50:06;;;;;;;8.88;7.85;;;15.50;49.20;;;;;;20421;6867;345010;-70
2023/10/11 03:52:32;;;;;;;10.27;8.03;;;15.70;49.20;;;;;;20429;6865;283033;-70
2023/10/11 03:55:05;;;;;;;7.33;6.37;;;15.90;48.70;;;;;;20650;6867;117467;-70
2023/10/11 03:57:27;;;;;;;14.43;6.93;;;15.70;48.90;;;;;;20640;6867;120372;-70
2023/10/11 03:59:53;;;;;;;10.43;6.80;;;15.40;49.40;;;;;;20644;6867;118774;-70
2023/10/11 04:02:18;;;;;;;10.17;7.90;;;15.20;49.90;;;;;;20434;6867;281502;-70
2023/10/11 04:04:48;;;;;;;10.00;8.43;;;15.60;49.30;;;;;;20426;6867;309132;-70
2023/10/11 04:07:12;;;;;;;9.30;7.20;;;15.60;49.30;;;;;;20605;6867;118079;-70
2023/10/11 04:12:04;;;;;;;10.90;6.53;;;15.30;49.60;;;;;;20618;6867;121846;-74
2023/10/11 04:14:45;;;;;;;8.85;6.62;;;15.00;49.80;;;;;;20603;6867;124546;-72
2023/10/11 04:17:26;;;;;;;9.55;7.85;;;14.90;50.10;;;;;;20394;6867;279068;-72
2023/10/11 04:20:18;;;;;;;9.23;7.47;;;15.10;49.90;;;;;;20617;6867;119545;-75
2023/10/11 04:22:27;;;;;;;9.70;6.70;;;15.00;49.80;;;;;;20495;6867;117420;-73
2023/10/11 04:24:55;;;;;;;8.57;7.68;;;15.00;50.10;;;;;;20407;6867;339111;-72
2023/10/11 04:29:52;;;;;;;8.77;6.37;;;15.00;49.90;;;;;;20626;6867;117411;-70
2023/10/11 04:35:10;;;;;;;7.73;6.93;;;15.00;50.30;;;;;;20626;6867;118138;-71
2023/10/11 04:37:34;;;;;;;11.00;6.93;;;14.90;50.10;;;;;;20621;6867;118794;-72
2023/10/11 04:39:56;;;;;;;9.30;7.55;;;14.80;50.40;;;;;;20410;6867;338879;-71
2023/10/11 04:42:30;;;;;;;8.93;6.90;;;14.90;50.30;;;;;;20632;6867;117531;-71
2023/10/11 04:44:56;;;;;;;10.20;6.67;;;14.90;50.20;;;;;;20646;6867;119372;-71
2023/10/11 04:47:23;;;;;;;11.37;7.57;;;14.90;50.30;;;;;;20401;6867;279206;-71
2023/10/11 04:49:48;;;;;;;11.00;6.80;;;14.90;50.30;;;;;;20615;6867;119317;-70
2023/10/11 04:52:22;;;;;;;10.25;7.85;;;14.80;50.20;;;;;;20425;6867;288961;-71
2023/10/11 04:54:53;;;;;;;11.63;8.07;;;15.00;50.20;;;;;;20392;6867;299497;-69
2023/10/11 04:57:07;;;;;;;9.27;7.03;;;15.20;50.00;;;;;;20573;6867;119063;-69
2023/10/11 05:02:08;;;;;;;9.87;7.60;;;14.90;50.20;;;;;;20414;6865;340047;-69
2023/10/11 05:04:34;;;;;;;12.20;8.47;;;15.00;50.40;;;;;;20387;6866;308642;-72
2023/10/11 05:07:21;;;;;;;9.87;7.30;;;15.40;50.10;;;;;;20625;6867;118037;-69
2023/10/11 05:09:39;;;;;;;8.90;6.83;;;15.20;49.90;;;;;;20518;6867;121344;-68
2023/10/11 05:14:30;;;;;;;11.93;7.70;;;14.70;50.60;;;;;;20398;6867;340756;-69
2023/10/11 05:19:55;;;;;;;9.07;6.60;;;14.80;50.50;;;;;;20643;6867;117819;-68
2023/10/11 05:22:30;;;;;;;9.70;6.37;;;14.50;50.70;;;;;;20567;6867;119307;-68
2023/10/11 05:32:49;;;;;;;11.40;7.90;;;15.20;50.30;;;;;;20411;6867;308374;-71
2023/10/11 05:51:28;;;;;;;7.83;6.23;;;14.60;50.70;;;;;;20639;6867;117488;-68
2023/10/11 05:53:55;;;;;;;12.50;7.73;;;14.40;51.10;;;;;;20427;6867;308718;-70
2023/10/11 05:56:20;;;;;;;10.23;6.40;;;14.60;51.10;;;;;;20649;6867;117561;-73
2023/10/11 05:58:46;;;;;;;9.38;7.45;;;14.60;50.90;;;;;;20412;6867;338316;-70
2023/10/11 06:01:13;;;;;;;8.50;7.60;;;14.80;50.90;;;;;;20380;6867;309150;-71
2023/10/11 06:03:37;;;;;;;9.10;7.30;;;15.10;50.30;;;;;;20413;6867;284248;-72
2023/10/11 06:06:11;;;;;;;9.60;7.93;;;15.40;49.60;;;;;;20415;6867;279411;-70
2023/10/11 06:08:31;;;;;;;13.10;7.75;;;15.60;49.50;;;;;;20397;6867;317322;-69
2023/10/11 06:10:54;;;;;;;10.73;6.93;;;15.80;49.10;;;;;;20631;6867;117410;-69
2023/10/11 06:13:21;;;;;;;9.05;7.15;;;15.70;49.60;;;;;;20409;6867;308832;-69
2023/10/11 06:15:58;;;;;;;11.00;7.80;;;16.00;49.30;;;;;;20433;6866;318825;-68
2023/10/11 06:18:38;;;;;;;10.03;6.87;;;15.90;49.10;;;;;;20616;6867;117539;-69
2023/10/11 06:20:39;;;;;;;9.43;6.63;;;15.90;49.40;;;;;;20576;6867;123406;-70
2023/10/11 06:23:03;;;;;;;8.27;7.40;;;15.70;49.70;;;;;;20401;6867;312317;-71
2023/10/11 06:28:15;;;;;;;9.77;7.50;;;15.90;49.40;;;;;;20433;6867;308421;-70
2023/10/11 06:30:42;;;;;;;9.15;7.50;;;16.20;49.00;;;;;;20436;6867;309196;-69
2023/10/11 06:33:07;;;;;;;9.97;7.47;;;16.50;48.50;;;;;;20395;6867;278697;-70
2023/10/11 06:35:32;;;;;;;9.37;7.50;;;16.80;48.00;;;;;;20428;6867;309571;-70
2023/10/11 06:37:58;;;;;;;9.33;7.03;;;17.00;47.50;;;;;;20414;6867;279460;-72
2023/10/11 06:40:39;;;;;;;9.90;7.50;;;17.30;47.30;;;;;;20432;6867;287191;-70
2023/10/11 06:43:07;;;;;;;9.25;7.20;;;17.50;46.80;;;;;;20404;6867;338308;-69
2023/10/11 06:45:34;;;;;;;11.75;7.35;;;17.80;46.30;;;;;;20426;6867;308696;-69
2023/10/11 06:48:06;;;;;;;6.73;6.03;;;17.80;46.30;;;;;;20636;6867;119362;-70
2023/10/11 06:50:26;;;;;;;9.23;5.97;;;17.70;46.60;;;;;;20624;6867;123197;-69
2023/10/11 06:52:53;;;;;;;6.77;6.10;;;17.50;47.20;;;;;;20639;6867;117932;-69
2023/10/11 06:55:18;;;;;;;10.25;7.10;;;17.30;47.60;;;;;;20408;6867;309499;-69
2023/10/11 06:57:45;;;;;;;8.47;7.00;;;17.50;47.10;;;;;;20445;6867;280520;-69
2023/10/11 07:00:20;;;;;;;7.87;7.15;;;17.80;46.60;;;;;;20423;6867;309690;-69
2023/10/11 07:02:34;;;;;;;10.33;7.10;;;18.10;46.20;;;;;;20386;6867;309320;-69
2023/10/11 07:05:05;;;;;;;7.40;6.70;;;18.30;45.60;;;;;;20429;6867;306375;-70
2023/10/11 07:07:26;;;;;;;7.10;5.90;;;18.60;45.50;;;;;;20613;6867;118733;-70
2023/10/11 07:09:57;;;;;;;7.67;6.90;;;18.50;45.60;;;;;;20438;6867;279106;-70
2023/10/11 07:15:00;;;;;;;10.17;6.23;;;18.70;44.70;;;;;;19607;7214;121141;-71
2023/10/11 07:17:30;;;;;;;7.73;5.50;;;18.60;45.00;;;;;;20535;6867;119128;-72
2023/10/11 07:19:52;;;;;;;9.33;6.10;;;18.40;45.50;;;;;;20649;6867;117469;-71
2023/10/11 07:22:18;;;;;;;10.90;7.07;;;18.30;46.00;;;;;;20450;6867;308792;-71
2023/10/11 07:24:43;;;;;;;9.40;6.35;;;18.50;45.50;;;;;;20664;6867;121396;-71
2023/10/11 07:27:12;;;;;;;8.17;6.03;;;18.50;45.60;;;;;;20638;6865;118693;-71
2023/10/11 07:29:35;;;;;;;19.80;7.20;;;18.40;45.80;;;;;;20438;6867;308670;-71
2023/10/11 07:32:02;;;;;;;9.20;6.77;;;18.60;45.40;;;;;;20440;6867;280368;-71
2023/10/11 07:34:27;;;;;;;9.60;6.47;;;19.10;45.20;;;;;;20643;6867;118353;-71
2023/10/11 07:36:53;;;;;;;9.73;6.93;;;19.00;45.10;;;;;;20442;6867;338335;-71
2023/10/11 07:41:48;;;;;;;8.77;7.30;;;19.50;44.10;;;;;;20445;6867;310656;-71
2023/10/11 07:44:13;;;;;;;11.23;6.17;;;19.80;43.70;;;;;;20647;6867;119650;-71
2023/10/11 07:46:43;;;;;;;34.10;11.13;;;19.90;44.70;;;;;;20622;6867;118576;-71
2023/10/11 07:49:14;;;;;;;8.37;6.20;;;19.70;44.30;;;;;;20638;6867;145596;-71
2023/10/11 07:51:34;;;;;;;16.03;6.00;;;19.50;44.70;;;;;;20624;6867;117722;-71
2023/10/11 07:54:06;;;;;;;7.50;6.72;;;19.40;45.00;;;;;;20648;6867;117568;-72
2023/10/11 07:56:29;;;;;;;8.63;6.45;;;19.40;45.00;;;;;;20433;6867;308892;-71
2023/10/11 07:58:57;;;;;;;12.23;7.00;;;20.00;43.80;;;;;;20433;6867;313662;-71
2023/10/11 08:01:27;;;;;;;11.40;6.63;;;20.40;43.30;;;;;;20405;6867;319063;-71
2023/10/11 08:03:51;;;;;;;8.38;6.53;;;20.40;43.30;;;;;;20425;6867;313365;-71
2023/10/11 08:06:18;;;;;;;10.17;7.20;;;20.70;42.50;;;;;;20424;6867;308690;-71
2023/10/11 08:08:43;;;;;;;9.77;6.17;;;21.00;42.40;;;;;;20614;6867;121397;-71
2023/10/11 08:11:23;;;;;;;9.52;6.90;;;21.10;41.40;;;;;;20410;6867;312337;-72
2023/10/11 08:13:48;;;;;;;8.90;5.40;;;21.10;41.40;;;;;;20635;6867;118686;-72
2023/10/11 08:16:17;;;;;;;9.70;7.10;;;21.10;41.80;;;;;;20424;6867;308253;-72
2023/10/11 08:18:38;;;;;;;9.37;6.57;;;21.20;41.60;;;;;;20626;6867;117526;-71
2023/10/11 08:21:05;;;;;;;9.30;6.33;;;21.30;42.10;;;;;;20418;6867;279593;-72
2023/10/11 08:23:30;;;;;;;11.30;6.80;;;21.70;40.90;;;;;;20427;6867;338747;-72
2023/10/11 08:25:57;;;;;;;8.60;6.30;;;21.70;41.10;;;;;;20641;6867;122179;-72
2023/10/11 08:28:28;;;;;;;11.67;5.90;;;21.70;41.10;;;;;;20616;6867;119461;-71
2023/10/11 08:30:50;;;;;;;11.53;6.60;;;21.60;41.50;;;;;;20422;6867;330556;-78
2023/10/11 08:33:16;;;;;;;11.17;5.90;;;21.80;40.90;;;;;;20627;6867;123465;-76
2023/10/11 08:35:46;;;;;;;9.90;5.87;;;21.80;40.90;;;;;;20648;6867;117683;-72
2023/10/11 08:38:12;;;;;;;11.60;6.07;;;21.70;41.50;;;;;;20637;6865;118905;-71
2023/10/11 08:40:37;;;;;;;13.87;6.20;;;21.70;41.50;;;;;;20648;6866;117332;-72
2023/10/11 08:43:02;;;;;;;42.57;7.50;;;21.70;41.70;;;;;;20434;6867;318510;-73
2023/10/11 08:45:33;;;;;;;9.17;5.67;;;22.00;41.60;;;;;;20399;6868;283760;-72
2023/10/11 08:47:57;;;;;;;12.75;5.80;;;22.40;40.40;;;;;;20382;6868;342894;-71
2023/10/11 08:50:22;;;;;;;51.85;7.43;;;22.80;39.90;;;;;;20622;6877;119783;-72
2023/10/11 08:52:47;;;;;;;12.33;6.00;;;23.00;40.30;;;;;;20397;6882;309285;-72
2023/10/11 08:55:14;;;;;;;13.40;5.60;;;23.10;39.50;;;;;;20627;6865;118424;-72
2023/10/11 08:57:38;;;;;;;12.90;6.23;;;23.20;39.80;;;;;;20448;6865;311435;-72
2023/10/11 09:00:17;;;;;;;7.90;5.63;;;23.40;39.70;;;;;;20657;6865;117681;-72
2023/10/11 09:02:33;;;;;;;7.57;5.20;;;23.50;39.80;;;;;;20612;6865;122500;-72
2023/10/11 09:04:56;;;;;;;9.63;4.90;;;23.50;40.20;;;;;;20640;6865;117961;-72
2023/10/11 09:07:37;;;;;;;6.97;5.28;;;23.50;40.50;;;;;;20414;6865;313816;-70
2023/10/11 09:10:05;;;;;;;9.60;5.23;;;24.00;39.80;;;;;;20639;6865;117490;-71
2023/10/11 09:12:28;;;;;;;9.27;5.13;;;23.90;39.70;;;;;;20639;6865;117907;-71
2023/10/11 09:15:00;;;;;;;7.70;5.13;;;24.00;39.90;;;;;;20600;6865;117532;-71
2023/10/11 09:17:28;;;;;;;9.93;5.60;;;24.00;40.00;;;;;;20421;6865;283747;-71
2023/10/11 09:19:58;;;;;;;9.60;6.10;;;24.30;39.50;;;;;;20434;6865;308660;-71
2023/10/11 09:22:23;;;;;;;9.83;6.77;;;24.90;38.60;;;;;;20651;6865;117578;-71
2023/10/11 09:24:48;;;;;;;14.40;7.07;;;24.80;38.50;;;;;;20631;6865;117495;-72
2023/10/11 09:29:43;;;;;;;10.20;5.43;;;25.00;37.70;;;;;;20651;6865;119913;-72
2023/10/11 09:32:09;;;;;;;11.30;5.93;;;25.10;38.10;;;;;;20433;6865;342390;-71
2023/10/11 09:34:34;;;;;;;12.97;5.50;;;25.40;37.80;;;;;;20643;6865;118036;-71
2023/10/11 09:37:00;;;;;;;10.67;5.87;;;25.40;38.30;;;;;;20646;6865;117605;-71
2023/10/11 09:39:29;;;;;;;16.00;6.17;;;25.40;38.10;;;;;;20408;6865;278629;-71
2023/10/11 09:41:53;;;;;;;5.77;5.17;;;25.70;37.70;;;;;;20643;6865;121951;-71
2023/10/11 09:44:19;;;;;;;12.80;5.37;;;25.60;37.60;;;;;;20631;6865;118629;-72
2023/10/11 09:46:45;;;;;;;12.03;5.40;;;25.80;36.60;;;;;;20428;6865;284282;-71
2023/10/11 09:49:15;;;;;;;26.63;6.13;;;25.80;36.60;;;;;;20639;6864;117560;-71
2023/10/11 09:51:46;;;;;;;11.10;6.60;;;25.80;37.00;;;;;;20662;6865;117550;-72
2023/10/11 09:54:14;;;;;;;13.13;7.20;;;25.80;37.50;;;;;;20453;6865;308395;-72
2023/10/11 09:56:50;;;;;;;12.00;6.82;;;25.90;36.90;;;;;;20437;6865;311478;-72
2023/10/11 09:59:30;;;;;;;9.73;5.60;;;26.30;37.90;;;;;;20621;6865;121849;-72
2023/10/11 10:02:02;;;;;;;16.17;6.10;;;26.30;37.20;;;;;;20426;6865;308981;-72
2023/10/11 10:04:27;;;;;;;7.23;4.80;;;26.50;36.50;;;;;;20629;6865;117941;-72
2023/10/11 10:07:12;;;;;;;8.57;5.40;;;26.60;36.60;;;;;;20044;6865;308623;-70
2023/10/11 10:09:48;;;;;;;6.83;5.47;;;26.60;35.50;;;;;;20651;6865;118108;-72
2023/10/11 10:12:20;;;;;;;11.00;6.53;;;26.80;35.10;;;;;;20432;6865;308692;-71
2023/10/11 10:14:41;;;;;;;9.87;5.70;;;26.70;35.00;;;;;;20428;6865;279509;-71
2023/10/11 10:17:12;;;;;;;11.55;6.12;;;27.00;33.70;;;;;;20407;6865;338783;-72
2023/10/11 10:19:39;;;;;;;12.60;5.70;;;27.30;33.40;;;;;;20645;6865;118999;-71
2023/10/11 10:22:10;;;;;;;9.40;4.77;;;27.20;34.40;;;;;;20643;6865;117633;-72
2023/10/11 10:24:36;;;;;;;10.50;5.47;;;27.20;34.30;;;;;;20435;6865;338906;-71
2023/10/11 10:27:34;;;;;;;10.50;5.83;;;27.30;33.50;;;;;;20435;6865;309521;-73
2023/10/11 10:30:00;;;;;;;12.33;5.73;;;27.60;32.90;;;;;;20292;6865;309189;-71
2023/10/11 10:32:25;;;;;;;9.57;4.70;;;27.90;32.60;;;;;;20602;6865;119354;-74
2023/10/11 10:35:18;;;;;;;10.20;4.90;;;28.00;32.90;;;;;;20437;6865;297133;-73
2023/10/11 10:37:50;;;;;;;9.80;4.87;;;28.00;31.90;;;;;;20445;6865;299344;-73
2023/10/11 10:40:27;;;;;;;7.37;4.60;;;28.20;32.00;;;;;;20649;6865;118603;-81
2023/10/11 10:43:10;;;;;;;9.33;4.57;;;28.10;32.20;;;;;;20661;6865;122207;-73
2023/10/11 10:45:34;;;;;;;11.67;4.33;;;27.90;32.50;;;;;;20652;6865;118631;-73
2023/10/11 10:48:18;;;;;;;8.13;4.00;;;27.70;32.80;;;;;;20651;6865;117689;-73
2023/10/11 10:50:52;;;;;;;8.60;4.50;;;27.50;32.70;;;;;;20641;6865;117602;-74
2023/10/11 10:53:18;;;;;;;7.57;4.27;;;27.40;32.70;;;;;;20626;6865;117640;-73
2023/10/11 10:55:43;;;;;;;8.83;4.10;;;27.30;32.60;;;;;;20642;6865;118914;-72
2023/10/11 10:58:19;;;;;;;12.60;4.70;;;27.30;32.40;;;;;;20640;6865;117420;-75
2023/10/11 11:00:47;;;;;;;7.97;4.30;;;27.30;32.30;;;;;;20646;6864;117728;-74
2023/10/11 11:03:17;;;;;;;7.13;4.30;;;27.30;32.60;;;;;;20610;6865;117976;-74
2023/10/11 11:05:55;;;;;;;9.30;4.50;;;27.30;32.80;;;;;;20427;6865;309221;-74
2023/10/11 11:08:24;;;;;;;10.93;4.70;;;27.50;31.50;;;;;;20430;6865;312827;-74
2023/10/11 11:10:54;;;;;;;11.33;4.30;;;27.90;31.10;;;;;;20636;6865;118129;-74
2023/10/11 11:13:12;;;;;;;8.37;4.50;;;28.00;31.30;;;;;;20616;6865;127477;-74
2023/10/11 11:15:38;;;;;;;10.43;3.90;;;28.00;31.60;;;;;;20621;6865;117681;-73
2023/10/11 11:18:04;;;;;;;8.73;4.70;;;28.10;31.30;;;;;;20422;6865;306959;-75
2023/10/11 11:20:31;;;;;;;9.82;4.60;;;28.10;30.90;;;;;;20444;6865;308614;-74
2023/10/11 11:22:56;;;;;;;8.50;4.37;;;28.40;30.50;;;;;;20435;6865;279587;-76
2023/10/11 11:28:05;;;;;;;5.37;4.53;;;28.90;29.70;;;;;;20440;6865;283569;-73
2023/10/11 11:30:33;;;;;;;9.65;4.65;;;29.10;29.60;;;;;;20434;6865;309210;-73
2023/10/11 11:32:59;;;;;;;8.60;4.87;;;29.20;29.40;;;;;;20441;6865;279721;-73
2023/10/11 11:35:32;;;;;;;8.43;4.20;;;29.30;29.60;;;;;;20611;6865;119028;-73
2023/10/11 11:38:08;;;;;;;9.18;4.50;;;29.20;29.70;;;;;;20423;6865;312844;-74
2023/10/11 11:40:37;;;;;;;10.23;4.40;;;29.10;29.30;;;;;;20396;6865;314062;-75
2023/10/11 11:43:04;;;;;;;8.23;4.10;;;29.20;28.90;;;;;;20631;6865;118200;-75
2023/10/11 11:45:35;;;;;;;7.00;4.37;;;29.10;29.20;;;;;;20644;6865;118165;-75
2023/10/11 11:47:58;;;;;;;7.30;4.33;;;28.80;29.60;;;;;;20420;6865;308775;-75
2023/10/11 11:50:33;;;;;;;6.93;4.20;;;28.80;29.20;;;;;;20437;6865;279095;-74
2023/10/11 11:52:57;;;;;;;8.90;4.20;;;28.90;28.70;;;;;;20623;6865;120154;-74
2023/10/11 11:55:24;;;;;;;9.67;4.60;;;28.90;29.10;;;;;;20414;6865;283567;-74
2023/10/11 11:57:50;;;;;;;7.23;3.97;;;28.90;29.50;;;;;;20650;6865;117781;-77
2023/10/11 12:02:52;;;;;;;9.17;4.63;;;28.60;29.80;;;;;;20650;6865;117412;-75
2023/10/11 12:05:18;;;;;;;6.03;3.80;;;28.30;30.00;;;;;;20613;6865;117750;-77
2023/10/11 12:07:43;;;;;;;10.27;4.40;;;28.30;30.00;;;;;;20438;6865;279653;-76
2023/10/11 12:10:23;;;;;;;8.65;4.37;;;28.50;29.80;;;;;;20433;6865;280503;-77
2023/10/11 12:12:38;;;;;;;7.97;4.30;;;28.80;29.10;;;;;;20405;6864;309891;-77
2023/10/11 12:15:04;;;;;;;7.23;4.03;;;29.20;29.70;;;;;;20637;6865;120617;-79
2023/10/11 12:17:30;;;;;;;9.03;4.07;;;29.20;29.10;;;;;;20654;6865;117560;-73
2023/10/11 12:19:55;;;;;;;5.10;3.53;;;29.00;29.20;;;;;;20636;6865;118633;-75
2023/10/11 12:22:25;;;;;;;6.75;4.32;;;28.80;29.20;;;;;;20455;6865;298974;-76
2023/10/11 12:24:50;;;;;;;6.50;3.77;;;28.80;28.90;;;;;;20662;6865;118716;-77
2023/10/11 12:27:16;;;;;;;8.97;4.00;;;28.80;29.00;;;;;;20634;6865;118225;-76
2023/10/11 12:29:43;;;;;;;6.17;3.70;;;28.70;29.10;;;;;;20643;6865;117929;-74
2023/10/11 12:32:08;;;;;;;11.63;4.17;;;28.60;29.20;;;;;;20632;6865;118720;-73
2023/10/11 12:34:33;;;;;;;7.27;4.03;;;28.40;29.20;;;;;;20658;6865;118808;-76
2023/10/11 12:37:02;;;;;;;16.53;6.27;;;28.30;29.30;;;;;;20652;6865;117556;-76
2023/10/11 12:39:30;;;;;;;14.23;6.33;;;28.20;29.50;;;;;;20630;6865;119404;-75
2023/10/11 12:41:52;;;;;;;20.17;7.83;;;28.10;29.40;;;;;;20648;6865;118127;-75
2023/10/11 12:44:17;;;;;;;18.73;6.90;;;28.10;29.50;;;;;;20444;6865;279558;-71
2023/10/11 12:46:43;;;;;;;15.90;6.00;;;28.30;29.00;;;;;;20645;6865;118264;-73
2023/10/11 12:49:13;;;;;;;13.27;5.27;;;28.40;29.00;;;;;;20417;6865;279574;-75
2023/10/11 12:51:35;;;;;;;11.82;5.10;;;28.90;28.20;;;;;;20431;6865;278606;-74
2023/10/11 12:54:00;;;;;;;22.85;7.25;;;28.80;28.20;;;;;;20435;6865;337784;-74
2023/10/11 12:56:26;;;;;;;9.13;4.40;;;29.10;28.10;;;;;;20631;6865;117566;-72
2023/10/11 12:58:54;;;;;;;15.25;5.85;;;29.10;28.20;;;;;;20444;6865;279169;-73
2023/10/11 13:01:26;;;;;;;12.23;4.93;;;29.10;28.30;;;;;;20625;6865;119795;-73
2023/10/11 13:03:52;;;;;;;7.37;4.00;;;29.00;28.20;;;;;;20628;6865;117963;-73
2023/10/11 13:06:10;;;;;;;7.97;4.30;;;28.80;28.40;;;;;;20622;6865;117488;-73
2023/10/11 13:08:37;;;;;;;6.82;3.97;;;28.60;28.60;;;;;;20434;6865;309052;-72
2023/10/11 13:11:01;;;;;;;9.57;3.83;;;28.70;28.90;;;;;;20645;6865;117583;-73
2023/10/11 13:13:27;;;;;;;7.10;4.17;;;28.60;28.30;;;;;;20439;6865;309720;-72
2023/10/11 13:16:03;;;;;;;7.93;3.37;;;28.70;27.90;;;;;;20659;6865;117921;-72
2023/10/11 13:18:37;;;;;;;6.00;3.70;;;28.70;28.20;;;;;;20658;6865;117497;-74
2023/10/11 13:20:59;;;;;;;8.97;4.00;;;28.50;28.50;;;;;;20646;6865;117385;-72
2023/10/11 13:23:29;;;;;;;6.65;4.35;;;28.40;28.80;;;;;;20432;6864;336109;-75
2023/10/11 13:25:55;;;;;;;4.67;3.80;;;28.50;28.50;;;;;;20641;6865;117482;-76
2023/10/11 13:28:20;;;;;;;7.07;3.93;;;28.60;28.50;;;;;;20408;6865;308089;-73
2023/10/11 13:30:47;;;;;;;8.93;4.20;;;28.60;27.90;;;;;;20422;6865;337891;-75
2023/10/11 13:33:11;;;;;;;7.77;4.03;;;28.80;27.70;;;;;;20627;6865;118569;-73